Terminal Aerodrome Forecast
Issued by NWS

Home | Current Version | Previous Version | Text Only | Print | Product List | Glossary On
Versions: 1 2 3 4 5 6 7 8 9 10 11 12 13 14 15 16 17 18 19 20 21 22 23 24 25 26 27 28
000
FTUS42 KRAH 211120
TAFRWI
TAF
KRWI 211120Z 2112/2212 00000KT 3SM BR FEW002 FEW250
      TEMPO 2112/2113 1/2SM FG BKN002
     FM211300 06003KT P6SM FEW250
     FM220600 00000KT 3SM BR SCT250
      TEMPO 2207/2211 1SM BR=

USA.gov is the U.S. government's official web portal to all federal, state and local government web resources and services.